createdAt,value
2018-03-21T00:08:46.111Z,0
2018-03-21T00:18:46.005Z,0
2018-03-21T00:28:46.046Z,0
2018-03-21T00:38:46.066Z,0
2018-03-21T00:48:46.108Z,0
2018-03-21T00:58:46.080Z,0
2018-03-21T01:08:46.031Z,0
2018-03-21T01:18:46.071Z,0
2018-03-21T01:28:46.018Z,0
2018-03-21T01:38:46.090Z,0
2018-03-21T01:48:46.055Z,0
2018-03-21T01:58:46.111Z,0
2018-03-21T02:08:46.118Z,0
2018-03-21T02:18:46.110Z,0
2018-03-21T02:28:46.092Z,0
2018-03-21T02:38:46.168Z,0
2018-03-21T02:48:46.151Z,0
2018-03-21T02:58:46.114Z,0
2018-03-21T03:08:46.184Z,0
2018-03-21T03:18:46.108Z,0
2018-03-21T03:28:46.199Z,0
2018-03-21T03:38:46.159Z,0
2018-03-21T03:48:46.199Z,0
2018-03-21T03:58:46.167Z,0
2018-03-21T04:08:46.259Z,0
2018-03-21T04:18:46.508Z,0
2018-03-21T04:28:46.138Z,0
2018-03-21T04:38:46.246Z,0
2018-03-21T04:48:46.186Z,0
2018-03-21T04:58:46.265Z,0
2018-03-21T05:08:46.197Z,0
2018-03-21T05:18:46.245Z,0
2018-03-21T05:28:46.205Z,5
2018-03-21T05:38:46.285Z,10
2018-03-21T05:48:46.288Z,20
2018-03-21T05:58:46.197Z,15
2018-03-21T06:08:46.287Z,20
2018-03-21T06:18:46.217Z,25
2018-03-21T06:28:46.267Z,35
2018-03-21T06:38:46.318Z,45
2018-03-21T06:48:46.339Z,45
2018-03-21T06:58:46.319Z,60
2018-03-21T07:08:46.428Z,60
2018-03-21T07:18:46.351Z,50
2018-03-21T07:28:46.463Z,80
2018-03-21T07:38:46.381Z,85
2018-03-21T07:48:46.936Z,85
2018-03-21T07:58:46.415Z,75
2018-03-21T08:08:46.340Z,130
2018-03-21T08:18:46.382Z,145
2018-03-21T08:28:46.438Z,155
2018-03-21T08:38:46.425Z,145
